sensor_id;sensor_type;location;lat;lon;timestamp;pressure;altitude;pressure_sealevel;temperature;humidity
49297;BME280;35163;48.878;18.040;2023-03-14T00:03:36;97232.25;;;10.37;52.29
49297;BME280;35163;48.878;18.040;2023-03-14T00:06:04;97225.25;;;10.39;51.80
49297;BME280;35163;48.878;18.040;2023-03-14T00:08:30;97210.53;;;10.41;52.07
49297;BME280;35163;48.878;18.040;2023-03-14T00:10:57;97207.19;;;10.39;51.73
49297;BME280;35163;48.878;18.040;2023-03-14T00:13:24;97200.28;;;10.40;52.25
49297;BME280;35163;48.878;18.040;2023-03-14T00:15:51;97192.59;;;10.38;51.99
49297;BME280;35163;48.878;18.040;2023-03-14T00:18:17;97213.44;;;10.35;52.07
49297;BME280;35163;48.878;18.040;2023-03-14T00:20:46;97216.09;;;10.33;52.36
49297;BME280;35163;48.878;18.040;2023-03-14T00:23:12;97213.44;;;10.35;51.80
49297;BME280;35163;48.878;18.040;2023-03-14T00:25:39;97180.88;;;10.31;52.34
49297;BME280;35163;48.878;18.040;2023-03-14T00:28:05;97183.63;;;10.28;52.19
49297;BME280;35163;48.878;18.040;2023-03-14T00:30:32;97182.09;;;10.24;52.32
49297;BME280;35163;48.878;18.040;2023-03-14T00:32:58;97178.03;;;10.19;51.43
49297;BME280;35163;48.878;18.040;2023-03-14T00:35:25;97173.13;;;10.13;51.07
49297;BME280;35163;48.878;18.040;2023-03-14T00:37:52;97168.28;;;10.07;52.22
49297;BME280;35163;48.878;18.040;2023-03-14T00:40:18;97154.59;;;10.05;52.20
49297;BME280;35163;48.878;18.040;2023-03-14T00:42:45;97149.75;;;9.99;51.67
49297;BME280;35163;48.878;18.040;2023-03-14T00:45:11;97154.00;;;10.00;51.60
49297;BME280;35163;48.878;18.040;2023-03-14T00:47:39;97141.84;;;10.02;51.42
49297;BME280;35163;48.878;18.040;2023-03-14T00:50:08;97132.44;;;10.01;51.55
49297;BME280;35163;48.878;18.040;2023-03-14T00:52:36;97132.66;;;9.96;52.30
49297;BME280;35163;48.878;18.040;2023-03-14T00:55:03;97126.59;;;9.97;51.61
49297;BME280;35163;48.878;18.040;2023-03-14T00:57:30;97121.59;;;9.94;52.21
49297;BME280;35163;48.878;18.040;2023-03-14T00:59:56;97116.44;;;9.94;51.84
49297;BME280;35163;48.878;18.040;2023-03-14T01:02:23;97112.31;;;9.90;51.69
49297;BME280;35163;48.878;18.040;2023-03-14T01:04:50;97103.72;;;9.89;51.93
49297;BME280;35163;48.878;18.040;2023-03-14T01:07:16;97105.56;;;9.87;52.50
49297;BME280;35163;48.878;18.040;2023-03-14T01:09:43;97102.31;;;9.83;52.81
49297;BME280;35163;48.878;18.040;2023-03-14T01:12:09;97099.94;;;9.79;52.42
49297;BME280;35163;48.878;18.040;2023-03-14T01:14:36;97088.72;;;9.80;51.68
49297;BME280;35163;48.878;18.040;2023-03-14T01:17:03;97086.91;;;9.82;52.17
49297;BME280;35163;48.878;18.040;2023-03-14T01:19:29;97094.63;;;9.82;52.12
49297;BME280;35163;48.878;18.040;2023-03-14T01:21:59;97094.63;;;9.82;52.06
49297;BME280;35163;48.878;18.040;2023-03-14T01:24:26;97090.69;;;9.75;52.65
49297;BME280;35163;48.878;18.040;2023-03-14T01:26:52;97063.88;;;9.77;52.12
49297;BME280;35163;48.878;18.040;2023-03-14T01:29:19;97059.53;;;9.78;52.54
49297;BME280;35163;48.878;18.040;2023-03-14T01:31:45;97068.94;;;9.79;52.19
49297;BME280;35163;48.878;18.040;2023-03-14T01:34:14;97080.03;;;9.81;51.92
49297;BME280;35163;48.878;18.040;2023-03-14T01:36:41;97083.63;;;9.78;51.94
49297;BME280;35163;48.878;18.040;2023-03-14T01:39:07;97087.09;;;9.77;51.94
49297;BME280;35163;48.878;18.040;2023-03-14T01:41:35;97081.13;;;9.77;52.59
49297;BME280;35163;48.878;18.040;2023-03-14T01:44:01;97086.50;;;9.72;51.93
49297;BME280;35163;48.878;18.040;2023-03-14T01:49:11;97090.53;;;9.78;51.69
49297;BME280;35163;48.878;18.040;2023-03-14T01:56:45;97041.78;;;9.71;51.11
49297;BME280;35163;48.878;18.040;2023-03-14T01:59:12;97045.50;;;9.66;51.04
49297;BME280;35163;48.878;18.040;2023-03-14T02:01:43;97031.03;;;9.63;51.08
49297;BME280;35163;48.878;18.040;2023-03-14T02:04:11;97028.50;;;9.62;51.16
49297;BME280;35163;48.878;18.040;2023-03-14T02:06:47;97027.00;;;9.57;50.41
49297;BME280;35163;48.878;18.040;2023-03-14T02:09:15;97014.16;;;9.56;50.87
49297;BME280;35163;48.878;18.040;2023-03-14T02:11:43;96991.19;;;9.51;50.79
49297;BME280;35163;48.878;18.040;2023-03-14T02:14:21;96959.53;;;9.47;51.09
49297;BME280;35163;48.878;18.040;2023-03-14T02:16:51;96945.28;;;9.40;50.62
49297;BME280;35163;48.878;18.040;2023-03-14T02:19:24;96921.38;;;9.36;50.96
49297;BME280;35163;48.878;18.040;2023-03-14T02:22:09;96891.34;;;9.35;50.81
49297;BME280;35163;48.878;18.040;2023-03-14T02:24:57;96865.91;;;9.28;50.54
49297;BME280;35163;48.878;18.040;2023-03-14T02:27:29;96857.75;;;9.19;51.04
49297;BME280;35163;48.878;18.040;2023-03-14T02:30:02;96846.66;;;9.17;50.94
49297;BME280;35163;48.878;18.040;2023-03-14T02:32:31;96857.91;;;9.16;50.81
49297;BME280;35163;48.878;18.040;2023-03-14T02:35:04;96834.09;;;9.11;51.00
49297;BME280;35163;48.878;18.040;2023-03-14T02:37:41;96823.03;;;9.09;51.23
49297;BME280;35163;48.878;18.040;2023-03-14T02:40:08;96825.44;;;9.12;50.95
49297;BME280;35163;48.878;18.040;2023-03-14T02:42:35;96841.75;;;9.13;50.80
49297;BME280;35163;48.878;18.040;2023-03-14T02:47:37;96806.88;;;9.05;51.00
49297;BME280;35163;48.878;18.040;2023-03-14T02:50:14;96817.53;;;9.15;50.93
49297;BME280;35163;48.878;18.040;2023-03-14T02:52:42;96818.38;;;9.16;50.68
49297;BME280;35163;48.878;18.040;2023-03-14T02:55:09;96808.00;;;9.17;50.82
49297;BME280;35163;48.878;18.040;2023-03-14T02:57:35;96805.41;;;9.17;50.73
49297;BME280;35163;48.878;18.040;2023-03-14T03:00:03;96821.97;;;9.13;50.82
49297;BME280;35163;48.878;18.040;2023-03-14T03:02:34;96854.47;;;9.16;51.02
49297;BME280;35163;48.878;18.040;2023-03-14T03:05:01;96804.50;;;9.18;50.50
49297;BME280;35163;48.878;18.040;2023-03-14T03:07:27;96835.59;;;9.15;51.03
49297;BME280;35163;48.878;18.040;2023-03-14T03:09:54;96831.13;;;9.19;50.62
49297;BME280;35163;48.878;18.040;2023-03-14T03:12:20;96826.72;;;9.21;50.84
49297;BME280;35163;48.878;18.040;2023-03-14T03:14:47;96810.34;;;9.22;50.71
49297;BME280;35163;48.878;18.040;2023-03-14T03:17:13;96837.72;;;9.24;51.07
49297;BME280;35163;48.878;18.040;2023-03-14T03:19:40;96851.66;;;9.20;51.15
49297;BME280;35163;48.878;18.040;2023-03-14T03:22:07;96858.50;;;9.21;50.91
49297;BME280;35163;48.878;18.040;2023-03-14T03:24:33;96836.13;;;9.22;51.09
49297;BME280;35163;48.878;18.040;2023-03-14T03:27:00;96854.13;;;9.23;51.31
49297;BME280;35163;48.878;18.040;2023-03-14T03:29:26;96847.44;;;9.19;51.71
49297;BME280;35163;48.878;18.040;2023-03-14T03:31:53;96850.94;;;9.18;51.61
49297;BME280;35163;48.878;18.040;2023-03-14T03:34:20;96845.91;;;9.15;51.88
49297;BME280;35163;48.878;18.040;2023-03-14T03:36:46;96845.91;;;9.15;51.72
49297;BME280;35163;48.878;18.040;2023-03-14T03:39:13;96849.56;;;9.11;51.61
49297;BME280;35163;48.878;18.040;2023-03-14T03:41:39;96870.19;;;9.11;51.89
49297;BME280;35163;48.878;18.040;2023-03-14T03:44:06;96854.72;;;9.11;51.45
49297;BME280;35163;48.878;18.040;2023-03-14T03:46:33;96836.41;;;8.99;51.92
49297;BME280;35163;48.878;18.040;2023-03-14T03:49:00;96867.84;;;9.06;52.18
49297;BME280;35163;48.878;18.040;2023-03-14T03:51:26;96850.03;;;9.02;51.97
49297;BME280;35163;48.878;18.040;2023-03-14T03:53:53;96826.09;;;8.99;52.02
49297;BME280;35163;48.878;18.040;2023-03-14T03:56:20;96822.06;;;8.94;52.06
49297;BME280;35163;48.878;18.040;2023-03-14T03:58:46;96845.59;;;8.87;52.33
49297;BME280;35163;48.878;18.040;2023-03-14T04:01:13;96866.13;;;8.89;52.70
49297;BME280;35163;48.878;18.040;2023-03-14T04:03:39;96858.59;;;8.84;52.64
49297;BME280;35163;48.878;18.040;2023-03-14T04:06:12;96849.28;;;8.82;52.56
49297;BME280;35163;48.878;18.040;2023-03-14T04:08:39;96898.25;;;8.82;52.96
49297;BME280;35163;48.878;18.040;2023-03-14T04:11:07;96900.00;;;8.81;52.96
49297;BME280;35163;48.878;18.040;2023-03-14T04:13:33;96891.81;;;8.91;52.61
49297;BME280;35163;48.878;18.040;2023-03-14T04:16:00;96895.00;;;8.96;52.84
49297;BME280;35163;48.878;18.040;2023-03-14T04:18:27;96921.69;;;8.95;52.71
49297;BME280;35163;48.878;18.040;2023-03-14T04:20:55;96911.91;;;9.02;52.28
49297;BME280;35163;48.878;18.040;2023-03-14T04:23:22;96918.59;;;9.06;52.19
49297;BME280;35163;48.878;18.040;2023-03-14T04:25:53;96920.94;;;9.10;52.19
49297;BME280;35163;48.878;18.040;2023-03-14T04:28:19;96921.63;;;9.14;52.08
49297;BME280;35163;48.878;18.040;2023-03-14T04:30:46;96933.59;;;9.15;52.02
49297;BME280;35163;48.878;18.040;2023-03-14T04:33:12;96930.88;;;9.18;51.79
49297;BME280;35163;48.878;18.040;2023-03-14T04:35:44;96941.03;;;9.21;51.70
49297;BME280;35163;48.878;18.040;2023-03-14T04:38:12;96930.63;;;9.23;51.89
49297;BME280;35163;48.878;18.040;2023-03-14T04:40:39;96929.78;;;9.22;52.02
49297;BME280;35163;48.878;18.040;2023-03-14T04:43:07;96913.28;;;9.27;52.00
49297;BME280;35163;48.878;18.040;2023-03-14T04:45:34;96901.34;;;9.24;52.41
49297;BME280;35163;48.878;18.040;2023-03-14T04:48:01;96898.56;;;9.29;51.46
49297;BME280;35163;48.878;18.040;2023-03-14T04:50:27;96896.44;;;9.19;51.61
49297;BME280;35163;48.878;18.040;2023-03-14T04:52:54;96898.66;;;9.09;51.50
49297;BME280;35163;48.878;18.040;2023-03-14T04:55:20;96898.13;;;9.03;52.13
49297;BME280;35163;48.878;18.040;2023-03-14T04:57:49;96861.56;;;8.94;52.46
49297;BME280;35163;48.878;18.040;2023-03-14T05:00:16;96859.19;;;8.90;53.14
49297;BME280;35163;48.878;18.040;2023-03-14T05:02:46;96870.34;;;8.90;52.83
49297;BME280;35163;48.878;18.040;2023-03-14T05:05:12;96873.41;;;8.81;52.91
49297;BME280;35163;48.878;18.040;2023-03-14T05:07:39;96868.97;;;8.83;53.36
49297;BME280;35163;48.878;18.040;2023-03-14T05:10:05;96865.72;;;8.79;53.88
49297;BME280;35163;48.878;18.040;2023-03-14T05:12:32;96882.63;;;8.85;54.00
49297;BME280;35163;48.878;18.040;2023-03-14T05:14:59;96852.91;;;8.78;54.52
49297;BME280;35163;48.878;18.040;2023-03-14T05:17:25;96872.78;;;8.75;54.40
49297;BME280;35163;48.878;18.040;2023-03-14T05:19:52;96862.47;;;8.75;55.14
49297;BME280;35163;48.878;18.040;2023-03-14T05:22:18;96859.44;;;8.85;54.74
49297;BME280;35163;48.878;18.040;2023-03-14T05:24:45;96858.31;;;8.91;55.00
49297;BME280;35163;48.878;18.040;2023-03-14T05:27:11;96851.25;;;8.94;54.78
49297;BME280;35163;48.878;18.040;2023-03-14T05:29:38;96840.03;;;8.95;54.96
49297;BME280;35163;48.878;18.040;2023-03-14T05:32:04;96840.88;;;8.96;54.79
49297;BME280;35163;48.878;18.040;2023-03-14T05:34:31;96845.88;;;8.99;54.64
49297;BME280;35163;48.878;18.040;2023-03-14T05:36:58;96857.75;;;9.02;54.96
49297;BME280;35163;48.878;18.040;2023-03-14T05:39:24;96842.06;;;9.06;54.63
49297;BME280;35163;48.878;18.040;2023-03-14T05:41:51;96835.41;;;9.02;55.08
49297;BME280;35163;48.878;18.040;2023-03-14T05:44:20;96835.91;;;9.09;54.66
49297;BME280;35163;48.878;18.040;2023-03-14T05:46:47;96826.53;;;9.08;55.01
49297;BME280;35163;48.878;18.040;2023-03-14T05:49:13;96813.56;;;9.09;54.72
49297;BME280;35163;48.878;18.040;2023-03-14T05:51:40;96829.25;;;9.05;55.29
49297;BME280;35163;48.878;18.040;2023-03-14T05:54:06;96826.53;;;9.08;55.11
49297;BME280;35163;48.878;18.040;2023-03-14T05:56:33;96832.44;;;9.10;55.10
49297;BME280;35163;48.878;18.040;2023-03-14T05:58:59;96841.66;;;9.14;54.75
49297;BME280;35163;48.878;18.040;2023-03-14T06:01:29;96849.25;;;9.17;55.10
49297;BME280;35163;48.878;18.040;2023-03-14T06:03:56;96858.75;;;9.17;54.95
49297;BME280;35163;48.878;18.040;2023-03-14T06:06:22;96859.28;;;9.23;56.09
49297;BME280;35163;48.878;18.040;2023-03-14T06:08:49;96853.09;;;9.26;56.40
49297;BME280;35163;48.878;18.040;2023-03-14T06:11:16;96846.66;;;9.35;55.54
49297;BME280;35163;48.878;18.040;2023-03-14T06:13:42;96857.56;;;9.40;55.63
49297;BME280;35163;48.878;18.040;2023-03-14T06:16:09;96842.69;;;9.45;54.55
49297;BME280;35163;48.878;18.040;2023-03-14T06:18:36;96839.16;;;9.46;54.10
49297;BME280;35163;48.878;18.040;2023-03-14T06:21:02;96850.09;;;9.52;54.04
49297;BME280;35163;48.878;18.040;2023-03-14T06:23:29;96860.31;;;9.53;54.35
49297;BME280;35163;48.878;18.040;2023-03-14T06:25:58;96877.56;;;9.53;54.39
49297;BME280;35163;48.878;18.040;2023-03-14T06:28:24;96874.50;;;9.62;54.35
49297;BME280;35163;48.878;18.040;2023-03-14T06:30:51;96864.84;;;9.66;54.17
49297;BME280;35163;48.878;18.040;2023-03-14T06:33:18;96881.25;;;9.65;53.86
49297;BME280;35163;48.878;18.040;2023-03-14T06:35:45;96879.19;;;9.71;54.07
49297;BME280;35163;48.878;18.040;2023-03-14T06:38:11;96897.00;;;9.76;54.01
49297;BME280;35163;48.878;18.040;2023-03-14T06:40:38;96892.53;;;9.80;54.15
49297;BME280;35163;48.878;18.040;2023-03-14T06:43:05;96908.19;;;9.77;54.29
49297;BME280;35163;48.878;18.040;2023-03-14T06:45:32;96919.09;;;9.82;54.43
49297;BME280;35163;48.878;18.040;2023-03-14T06:47:58;96917.75;;;9.91;54.79
49297;BME280;35163;48.878;18.040;2023-03-14T06:50:25;96917.53;;;9.95;54.90
49297;BME280;35163;48.878;18.040;2023-03-14T06:52:52;96921.44;;;10.03;54.98
49297;BME280;35163;48.878;18.040;2023-03-14T06:55:21;96927.25;;;10.06;56.24
49297;BME280;35163;48.878;18.040;2023-03-14T06:57:48;96918.03;;;10.18;57.17
49297;BME280;35163;48.878;18.040;2023-03-14T07:00:15;96910.69;;;10.27;57.46
49297;BME280;35163;48.878;18.040;2023-03-14T07:02:41;96912.63;;;10.39;56.83
49297;BME280;35163;48.878;18.040;2023-03-14T07:05:09;96930.06;;;10.52;57.08
49297;BME280;35163;48.878;18.040;2023-03-14T07:07:36;96926.06;;;10.62;57.44
49297;BME280;35163;48.878;18.040;2023-03-14T07:10:03;96921.94;;;10.74;57.64
49297;BME280;35163;48.878;18.040;2023-03-14T07:12:30;96925.78;;;10.83;56.94
49297;BME280;35163;48.878;18.040;2023-03-14T07:14:56;96929.50;;;10.93;57.13
49297;BME280;35163;48.878;18.040;2023-03-14T07:17:37;96917.72;;;11.04;56.03
49297;BME280;35163;48.878;18.040;2023-03-14T07:20:04;96921.78;;;11.08;54.84
49297;BME280;35163;48.878;18.040;2023-03-14T07:22:33;96923.75;;;11.19;54.86
49297;BME280;35163;48.878;18.040;2023-03-14T07:25:00;96939.56;;;11.29;55.32
49297;BME280;35163;48.878;18.040;2023-03-14T07:27:27;96942.72;;;11.34;56.18
49297;BME280;35163;48.878;18.040;2023-03-14T07:29:53;96944.03;;;11.41;55.33
49297;BME280;35163;48.878;18.040;2023-03-14T07:32:20;96944.03;;;11.41;54.74
49297;BME280;35163;48.878;18.040;2023-03-14T07:34:46;96936.94;;;11.45;54.12
49297;BME280;35163;48.878;18.040;2023-03-14T07:37:13;96938.13;;;11.54;54.21
49297;BME280;35163;48.878;18.040;2023-03-14T07:39:40;96940.59;;;11.55;53.59
49297;BME280;35163;48.878;18.040;2023-03-14T07:42:06;96935.75;;;11.65;53.35
49297;BME280;35163;48.878;18.040;2023-03-14T07:44:33;96938.59;;;11.75;53.78
49297;BME280;35163;48.878;18.040;2023-03-14T07:46:59;96941.84;;;11.79;52.90
49297;BME280;35163;48.878;18.040;2023-03-14T07:49:26;96926.56;;;11.89;54.52
49297;BME280;35163;48.878;18.040;2023-03-14T07:51:53;96939.03;;;11.97;53.44
49297;BME280;35163;48.878;18.040;2023-03-14T07:54:20;96931.66;;;12.05;52.44
49297;BME280;35163;48.878;18.040;2023-03-14T07:56:46;96925.75;;;12.18;52.79
49297;BME280;35163;48.878;18.040;2023-03-14T07:59:13;96932.00;;;12.28;53.00
49297;BME280;35163;48.878;18.040;2023-03-14T08:01:39;96918.59;;;12.36;51.97
49297;BME280;35163;48.878;18.040;2023-03-14T08:04:06;96906.84;;;12.30;51.42
49297;BME280;35163;48.878;18.040;2023-03-14T08:06:35;96932.91;;;12.42;51.77
49297;BME280;35163;48.878;18.040;2023-03-14T08:09:02;96918.09;;;12.44;51.16
49297;BME280;35163;48.878;18.040;2023-03-14T08:11:30;96916.63;;;12.39;51.38
49297;BME280;35163;48.878;18.040;2023-03-14T08:13:56;96900.06;;;12.42;51.28
49297;BME280;35163;48.878;18.040;2023-03-14T08:16:23;96910.41;;;12.42;52.41
49297;BME280;35163;48.878;18.040;2023-03-14T08:18:49;96915.31;;;12.47;53.13
49297;BME280;35163;48.878;18.040;2023-03-14T08:21:16;96925.94;;;12.57;52.63
49297;BME280;35163;48.878;18.040;2023-03-14T08:23:42;96915.81;;;12.67;52.10
49297;BME280;35163;48.878;18.040;2023-03-14T08:26:09;96918.75;;;12.75;52.18
49297;BME280;35163;48.878;18.040;2023-03-14T08:28:36;96914.63;;;12.85;51.32
49297;BME280;35163;48.878;18.040;2023-03-14T08:31:02;96915.16;;;12.91;52.08
49297;BME280;35163;48.878;18.040;2023-03-14T08:33:29;96916.94;;;13.03;51.95
49297;BME280;35163;48.878;18.040;2023-03-14T08:35:58;96917.38;;;13.23;51.58
49297;BME280;35163;48.878;18.040;2023-03-14T08:38:25;96916.69;;;13.34;50.24
49297;BME280;35163;48.878;18.040;2023-03-14T08:40:58;96910.97;;;13.42;50.27
49297;BME280;35163;48.878;18.040;2023-03-14T08:43:26;96904.75;;;13.44;50.07
49297;BME280;35163;48.878;18.040;2023-03-14T08:45:57;96905.34;;;13.48;50.37
49297;BME280;35163;48.878;18.040;2023-03-14T08:48:24;96899.34;;;13.47;49.83
49297;BME280;35163;48.878;18.040;2023-03-14T08:50:50;96891.84;;;13.43;50.21
49297;BME280;35163;48.878;18.040;2023-03-14T08:53:17;96890.72;;;13.47;50.51
49297;BME280;35163;48.878;18.040;2023-03-14T08:55:45;96886.56;;;13.83;49.52
49297;BME280;35163;48.878;18.040;2023-03-14T08:58:11;96885.28;;;13.89;49.61
49297;BME280;35163;48.878;18.040;2023-03-14T09:00:38;96886.19;;;14.01;48.71
49297;BME280;35163;48.878;18.040;2023-03-14T09:03:05;96875.59;;;14.04;48.87
49297;BME280;35163;48.878;18.040;2023-03-14T09:05:34;96887.03;;;14.02;48.75
49297;BME280;35163;48.878;18.040;2023-03-14T09:08:01;96886.00;;;13.91;48.79
49297;BME280;35163;48.878;18.040;2023-03-14T09:10:28;96885.09;;;13.79;49.34
49297;BME280;35163;48.878;18.040;2023-03-14T09:12:57;96889.88;;;13.85;49.69
49297;BME280;35163;48.878;18.040;2023-03-14T09:15:24;96883.66;;;13.75;49.84
49297;BME280;35163;48.878;18.040;2023-03-14T09:17:50;96871.19;;;13.80;50.04
49297;BME280;35163;48.878;18.040;2023-03-14T09:20:17;96877.72;;;13.86;49.96
49297;BME280;35163;48.878;18.040;2023-03-14T09:22:44;96877.31;;;13.92;50.16
49297;BME280;35163;48.878;18.040;2023-03-14T09:25:10;96873.66;;;13.95;49.92
49297;BME280;35163;48.878;18.040;2023-03-14T09:27:37;96884.53;;;14.00;50.20
49297;BME280;35163;48.878;18.040;2023-03-14T09:30:04;96885.06;;;14.05;50.56
49297;BME280;35163;48.878;18.040;2023-03-14T09:32:31;96883.19;;;14.07;50.50
49297;BME280;35163;48.878;18.040;2023-03-14T09:34:58;96879.41;;;14.12;50.72
49297;BME280;35163;48.878;18.040;2023-03-14T09:37:25;96874.50;;;14.20;50.67
49297;BME280;35163;48.878;18.040;2023-03-14T09:39:51;96878.44;;;14.26;50.66
49297;BME280;35163;48.878;18.040;2023-03-14T09:42:22;96889.44;;;14.29;50.75
49297;BME280;35163;48.878;18.040;2023-03-14T09:45:03;96884.38;;;14.28;50.53
49297;BME280;35163;48.878;18.040;2023-03-14T09:47:33;96886.91;;;14.41;51.07
49297;BME280;35163;48.878;18.040;2023-03-14T09:50:01;96887.63;;;14.43;51.43
49297;BME280;35163;48.878;18.040;2023-03-14T09:52:32;96897.09;;;14.44;51.31
49297;BME280;35163;48.878;18.040;2023-03-14T09:55:04;96895.22;;;14.46;51.02
49297;BME280;35163;48.878;18.040;2023-03-14T09:57:34;96881.28;;;14.47;50.40
49297;BME280;35163;48.878;18.040;2023-03-14T10:00:06;96882.31;;;14.44;50.80
49297;BME280;35163;48.878;18.040;2023-03-14T10:02:43;96906.34;;;14.48;49.80
49297;BME280;35163;48.878;18.040;2023-03-14T10:05:20;96894.00;;;14.39;49.88
49297;BME280;35163;48.878;18.040;2023-03-14T10:07:48;96887.63;;;14.43;50.22
49297;BME280;35163;48.878;18.040;2023-03-14T10:10:22;96892.09;;;14.41;50.24
49297;BME280;35163;48.878;18.040;2023-03-14T10:13:25;96886.50;;;14.34;50.56
49297;BME280;35163;48.878;18.040;2023-03-14T10:15:55;96890.69;;;14.37;50.39
49297;BME280;35163;48.878;18.040;2023-03-14T10:18:28;96878.09;;;14.30;50.67
49297;BME280;35163;48.878;18.040;2023-03-14T10:21:25;96879.56;;;14.34;50.35
49297;BME280;35163;48.878;18.040;2023-03-14T10:23:52;96889.50;;;14.41;50.48
49297;BME280;35163;48.878;18.040;2023-03-14T10:26:29;96891.56;;;14.49;50.53
49297;BME280;35163;48.878;18.040;2023-03-14T10:29:08;96887.41;;;14.46;51.02
49297;BME280;35163;48.878;18.040;2023-03-14T10:31:47;96897.28;;;14.54;51.64
49297;BME280;35163;48.878;18.040;2023-03-14T10:34:35;96909.72;;;14.62;51.24
49297;BME280;35163;48.878;18.040;2023-03-14T10:37:21;96913.66;;;14.67;51.17
49297;BME280;35163;48.878;18.040;2023-03-14T10:39:51;96907.50;;;14.68;52.11
49297;BME280;35163;48.878;18.040;2023-03-14T10:42:21;96905.50;;;14.72;50.67
49297;BME280;35163;48.878;18.040;2023-03-14T10:44:59;96906.22;;;14.74;50.77
49297;BME280;35163;48.878;18.040;2023-03-14T10:47:26;96899.56;;;14.70;50.92
49297;BME280;35163;48.878;18.040;2023-03-14T10:49:55;96901.47;;;14.68;51.19
49297;BME280;35163;48.878;18.040;2023-03-14T10:52:28;96888.47;;;14.68;50.54
49297;BME280;35163;48.878;18.040;2023-03-14T10:54:59;96881.16;;;14.73;50.20
49297;BME280;35163;48.878;18.040;2023-03-14T10:57:26;96879.66;;;14.82;49.93
49297;BME280;35163;48.878;18.040;2023-03-14T10:59:55;96876.13;;;14.83;49.78
49297;BME280;35163;48.878;18.040;2023-03-14T11:08:02;96868.78;;;14.52;50.80
49297;BME280;35163;48.878;18.040;2023-03-14T11:10:37;96864.88;;;14.58;50.82
49297;BME280;35163;48.878;18.040;2023-03-14T11:13:18;96861.97;;;14.63;51.33
49297;BME280;35163;48.878;18.040;2023-03-14T11:16:02;96854.59;;;14.56;51.42
49297;BME280;35163;48.878;18.040;2023-03-14T11:18:54;96846.78;;;14.56;51.46
49297;BME280;35163;48.878;18.040;2023-03-14T11:22:19;96831.69;;;14.62;51.81
49297;BME280;35163;48.878;18.040;2023-03-14T11:27:34;96812.66;;;14.61;52.17
49297;BME280;35163;48.878;18.040;2023-03-14T11:32:50;96808.31;;;14.73;52.64
49297;BME280;35163;48.878;18.040;2023-03-14T11:35:30;96811.25;;;14.68;53.07
49297;BME280;35163;48.878;18.040;2023-03-14T11:38:37;96812.91;;;14.69;53.14
49297;BME280;35163;48.878;18.040;2023-03-14T11:41:12;96809.22;;;14.61;53.88
49297;BME280;35163;48.878;18.040;2023-03-14T11:43:41;96809.66;;;14.54;54.04
49297;BME280;35163;48.878;18.040;2023-03-14T11:46:17;96808.50;;;14.58;53.87
49297;BME280;35163;48.878;18.040;2023-03-14T11:49:19;96814.44;;;14.61;53.80
49297;BME280;35163;48.878;18.040;2023-03-14T11:51:52;96813.84;;;14.68;53.48
49297;BME280;35163;48.878;18.040;2023-03-14T11:54:28;96818.66;;;14.62;54.09
49297;BME280;35163;48.878;18.040;2023-03-14T11:57:01;96808.72;;;14.55;55.56
49297;BME280;35163;48.878;18.040;2023-03-14T11:59:58;96818.38;;;14.42;56.58
49297;BME280;35163;48.878;18.040;2023-03-14T12:02:35;96816.00;;;14.39;57.99
49297;BME280;35163;48.878;18.040;2023-03-14T12:10:54;96805.50;;;14.16;64.01
49297;BME280;35163;48.878;18.040;2023-03-14T12:13:32;96808.31;;;14.13;64.24
49297;BME280;35163;48.878;18.040;2023-03-14T12:16:04;96800.25;;;14.04;64.90
49297;BME280;35163;48.878;18.040;2023-03-14T12:18:37;96803.28;;;13.98;65.33
49297;BME280;35163;48.878;18.040;2023-03-14T12:21:08;96790.38;;;13.96;65.24
49297;BME280;35163;48.878;18.040;2023-03-14T12:23:56;96786.06;;;13.84;64.94
49297;BME280;35163;48.878;18.040;2023-03-14T12:26:25;96782.75;;;13.82;65.50
49297;BME280;35163;48.878;18.040;2023-03-14T12:29:14;96791.41;;;13.69;67.64
49297;BME280;35163;48.878;18.040;2023-03-14T12:31:48;96792.78;;;13.62;67.09
49297;BME280;35163;48.878;18.040;2023-03-14T12:48:10;96789.25;;;13.50;71.92
49297;BME280;35163;48.878;18.040;2023-03-14T12:50:53;96795.59;;;13.46;71.71
49297;BME280;35163;48.878;18.040;2023-03-14T13:01:33;96792.38;;;13.42;73.77
49297;BME280;35163;48.878;18.040;2023-03-14T13:04:08;96794.66;;;13.47;72.48
49297;BME280;35163;48.878;18.040;2023-03-14T13:09:49;96812.41;;;13.40;73.83
49297;BME280;35163;48.878;18.040;2023-03-14T13:12:23;96809.19;;;13.36;73.26
49297;BME280;35163;48.878;18.040;2023-03-14T13:14:54;96807.13;;;13.42;72.91
49297;BME280;35163;48.878;18.040;2023-03-14T13:17:30;96810.22;;;13.47;73.13
49297;BME280;35163;48.878;18.040;2023-03-14T13:20:12;96815.31;;;13.48;73.47
49297;BME280;35163;48.878;18.040;2023-03-14T13:22:48;96815.97;;;13.52;73.22
49297;BME280;35163;48.878;18.040;2023-03-14T13:25:15;96824.16;;;13.46;73.92
49297;BME280;35163;48.878;18.040;2023-03-14T13:27:43;96821.34;;;13.49;73.47
49297;BME280;35163;48.878;18.040;2023-03-14T13:30:17;96829.94;;;13.49;73.91
49297;BME280;35163;48.878;18.040;2023-03-14T13:32:46;96829.34;;;13.46;74.26
49297;BME280;35163;48.878;18.040;2023-03-14T13:35:16;96821.84;;;13.41;74.12
49297;BME280;35163;48.878;18.040;2023-03-14T13:37:43;96818.16;;;13.32;74.74
49297;BME280;35163;48.878;18.040;2023-03-14T13:40:19;96813.75;;;13.33;74.14
49297;BME280;35163;48.878;18.040;2023-03-14T13:42:47;96808.38;;;13.23;74.55
49297;BME280;35163;48.878;18.040;2023-03-14T13:45:14;96804.13;;;13.22;73.46
49297;BME280;35163;48.878;18.040;2023-03-14T13:47:40;96809.22;;;13.10;74.14
49297;BME280;35163;48.878;18.040;2023-03-14T13:50:17;96810.69;;;13.15;73.97
49297;BME280;35163;48.878;18.040;2023-03-14T13:52:44;96815.66;;;13.18;73.95
49297;BME280;35163;48.878;18.040;2023-03-14T13:55:18;96821.25;;;13.11;74.55
49297;BME280;35163;48.878;18.040;2023-03-14T13:57:52;96836.53;;;13.03;75.12
49297;BME280;35163;48.878;18.040;2023-03-14T14:00:25;96838.06;;;13.06;74.50
49297;BME280;35163;48.878;18.040;2023-03-14T14:02:58;96842.22;;;12.95;75.17